createdAt,value
2022-09-03T02:46:57.106Z,2.70
2022-09-03T02:49:48.344Z,2.80
2022-09-03T02:52:25.737Z,2.80
2022-09-03T03:07:45.145Z,2.67
2022-09-03T03:13:30.888Z,2.42
2022-09-03T03:16:32.908Z,2.60
2022-09-03T03:19:27.364Z,2.65
2022-09-03T03:25:13.923Z,2.60
2022-09-03T03:32:03.089Z,2.90
2022-09-03T03:35:00.582Z,4.43
2022-09-03T03:38:27.158Z,2.28
2022-09-03T04:07:35.053Z,3.03
2022-09-03T04:15:25.800Z,2.72
2022-09-03T04:18:51.563Z,3.42
2022-09-03T04:21:43.855Z,2.95
2022-09-03T04:37:12.039Z,3.03
2022-09-03T04:39:54.943Z,3.05
2022-09-03T04:54:30.290Z,3.40
2022-09-03T05:13:37.610Z,2.95
2022-09-03T05:16:27.233Z,3.15
2022-09-03T05:19:03.350Z,3.85
2022-09-03T05:21:51.982Z,3.97
2022-09-03T05:24:45.315Z,3.75
2022-09-03T05:27:38.798Z,3.22
2022-09-03T05:30:27.835Z,3.05
2022-09-03T05:34:42.997Z,3.40
2022-09-03T05:37:34.745Z,2.70
2022-09-03T05:49:33.895Z,2.75
2022-09-03T05:52:27.525Z,2.72
2022-09-03T06:04:04.185Z,2.88
2022-09-03T06:10:41.009Z,2.60
2022-09-03T06:16:47.845Z,2.65
2022-09-03T06:20:00.374Z,3.22
2022-09-03T06:25:55.615Z,3.03
2022-09-03T06:29:40.713Z,3.08
2022-09-03T06:43:46.938Z,3.17
2022-09-03T06:50:21.706Z,2.80
2022-09-03T07:04:45.705Z,2.20
2022-09-03T07:07:59.704Z,2.65
2022-09-03T07:11:41.492Z,2.70
2022-09-03T07:29:01.764Z,1.90
2022-09-03T07:31:34.136Z,2.03
2022-09-03T07:34:14.294Z,1.95
2022-09-03T07:36:51.777Z,2.33
2022-09-03T07:39:23.024Z,2.10
2022-09-03T07:41:59.347Z,2.30
2022-09-03T07:44:55.366Z,2.15
2022-09-03T07:50:43.112Z,2.03
2022-09-03T07:53:28.983Z,2.20
2022-09-03T07:56:17.865Z,2.10
2022-09-03T07:58:49.819Z,2.05
2022-09-03T08:01:34.379Z,2.35
2022-09-03T08:07:09.171Z,1.88
2022-09-03T08:09:52.860Z,1.80
2022-09-03T08:12:25.747Z,1.60
2022-09-03T08:15:19.527Z,1.95
2022-09-03T08:17:59.623Z,1.90
2022-09-03T08:20:39.168Z,1.95
2022-09-03T08:23:22.906Z,1.52
2022-09-03T08:26:06.384Z,2.05
2022-09-03T08:41:24.873Z,2.22
2022-09-03T08:44:32.986Z,1.70
2022-09-03T08:47:16.989Z,1.70
2022-09-03T08:50:22.426Z,1.80
2022-09-03T08:53:24.277Z,1.92
2022-09-03T08:56:21.423Z,2.00
2022-09-03T08:59:24.638Z,1.75
2022-09-03T09:02:23.967Z,2.03
2022-09-03T09:05:19.385Z,1.88
2022-09-03T09:07:57.222Z,1.70
2022-09-03T09:10:39.434Z,2.13
2022-09-03T09:13:34.396Z,1.42
2022-09-03T09:16:22.016Z,2.13
2022-09-03T09:19:09.969Z,1.60
2022-09-03T09:21:53.694Z,2.03
2022-09-03T09:24:28.028Z,1.67
2022-09-03T09:27:04.239Z,1.50
2022-09-03T09:29:41.068Z,1.67
2022-09-03T09:32:26.070Z,1.52
2022-09-03T09:34:55.219Z,2.08
2022-09-03T09:39:59.974Z,1.85
2022-09-03T09:42:33.140Z,2.03
2022-09-03T09:45:14.064Z,1.58
2022-09-03T09:47:47.579Z,2.03
2022-09-03T09:50:33.881Z,1.90
2022-09-03T09:53:11.379Z,1.73
2022-09-03T09:55:54.288Z,2.33
2022-09-03T09:58:41.850Z,2.08
2022-09-03T10:04:33.565Z,2.03
2022-09-03T10:07:20.079Z,1.77
2022-09-03T10:10:21.236Z,2.00
2022-09-03T10:13:04.045Z,1.60
2022-09-03T10:15:44.422Z,1.33
2022-09-03T10:18:41.252Z,1.45
2022-09-03T10:21:30.217Z,1.55
2022-09-03T10:24:22.803Z,1.33
2022-09-03T10:26:58.040Z,1.70
2022-09-03T10:29:45.955Z,1.92
2022-09-03T10:32:39.888Z,1.80
2022-09-03T10:35:43.014Z,1.60
2022-09-03T10:38:18.745Z,1.30
2022-09-03T10:41:15.911Z,1.50
2022-09-03T10:43:58.315Z,1.40
2022-09-03T10:47:05.932Z,1.48
2022-09-03T10:50:13.303Z,1.05
2022-09-03T10:53:09.713Z,1.58
2022-09-03T10:59:07.059Z,1.30
2022-09-03T11:18:42.924Z,1.40
2022-09-03T11:21:30.183Z,1.17
2022-09-03T11:24:10.206Z,1.45
2022-09-03T11:56:19.253Z,1.58
2022-09-03T11:59:05.105Z,1.20
2022-09-03T12:01:46.616Z,1.20
2022-09-03T12:04:28.748Z,1.20
2022-09-03T12:07:28.695Z,1.38
2022-09-03T12:13:20.092Z,1.33
2022-09-03T12:16:10.494Z,1.40
2022-09-03T12:18:56.381Z,1.40
2022-09-03T12:24:23.032Z,1.40
2022-09-03T12:27:22.847Z,1.67
2022-09-03T12:42:52.438Z,1.33
2022-09-03T12:45:26.067Z,1.25
2022-09-03T12:48:06.863Z,1.33
2022-09-03T12:50:56.505Z,1.45
2022-09-03T12:53:45.825Z,1.50
2022-09-03T12:56:42.610Z,1.50
2022-09-03T12:59:39.722Z,1.42
2022-09-03T13:02:24.963Z,2.75
2022-09-03T13:06:20.182Z,1.55
2022-09-03T13:09:03.212Z,1.30
2022-09-03T13:24:32.443Z,1.45
2022-09-03T13:27:24.451Z,1.80
2022-09-03T13:30:07.178Z,1.45
2022-09-03T13:43:39.125Z,1.70
2022-09-03T13:46:09.197Z,1.40
2022-09-03T13:49:16.818Z,1.45
2022-09-03T13:52:07.057Z,1.60
2022-09-03T13:54:52.647Z,1.50
2022-09-03T13:57:39.283Z,1.60
2022-09-03T14:00:12.457Z,1.52
2022-09-03T14:03:06.445Z,1.98
2022-09-03T14:05:46.090Z,1.50
2022-09-03T14:08:30.701Z,1.60
2022-09-03T14:11:23.860Z,1.40
2022-09-03T14:14:13.181Z,1.65
2022-09-03T14:17:07.909Z,1.90
2022-09-03T14:20:02.029Z,1.63
2022-09-03T14:22:49.873Z,2.42
2022-09-03T14:25:21.285Z,2.13
2022-09-03T14:27:54.032Z,1.48
2022-09-03T14:30:49.141Z,1.52
2022-09-03T14:33:28.165Z,1.90
2022-09-03T14:36:04.058Z,1.60
2022-09-03T14:38:58.393Z,2.80
2022-09-03T14:41:50.072Z,2.08
2022-09-03T14:47:07.299Z,1.85
2022-09-03T14:49:57.992Z,2.38
2022-09-03T14:55:36.060Z,1.90
2022-09-03T14:58:35.078Z,1.90
2022-09-03T15:01:27.398Z,1.60
2022-09-03T15:04:05.966Z,1.98
2022-09-03T15:06:52.134Z,1.67
2022-09-03T15:09:40.413Z,2.10
2022-09-03T15:12:23.454Z,1.65
2022-09-03T15:15:05.015Z,1.80
2022-09-03T15:17:51.038Z,1.65
2022-09-03T15:20:33.005Z,2.10
2022-09-03T15:23:23.035Z,1.88
2022-09-03T15:26:17.802Z,1.83
2022-09-03T15:28:52.134Z,9.70
2022-09-03T15:31:27.203Z,3.03
2022-09-03T15:34:38.480Z,3.25
2022-09-03T15:37:41.649Z,4.13
2022-09-03T15:40:26.155Z,8.25
2022-09-03T15:43:30.286Z,24.63
2022-09-03T15:48:49.611Z,10.85
2022-09-03T15:51:34.901Z,2.20
2022-09-03T15:56:19.692Z,2.20
2022-09-03T16:05:59.630Z,1.90
2022-09-03T16:20:39.288Z,2.15
2022-09-03T16:23:17.847Z,1.98
2022-09-03T16:25:52.205Z,2.33
2022-09-03T16:28:29.613Z,4.47
2022-09-03T16:31:09.281Z,2.63
2022-09-03T16:34:00.021Z,2.35
2022-09-03T16:36:41.451Z,2.30
2022-09-03T16:39:33.216Z,2.08
2022-09-03T16:42:24.801Z,2.92
2022-09-03T16:48:33.540Z,2.50
2022-09-03T16:51:15.094Z,3.92
2022-09-03T16:54:04.076Z,2.30
2022-09-03T16:56:52.679Z,2.15
2022-09-03T16:59:31.856Z,2.28
2022-09-03T17:02:23.787Z,2.17
2022-09-03T17:04:58.099Z,2.40
2022-09-03T17:07:50.971Z,1.83
2022-09-03T17:10:24.600Z,2.13
2022-09-03T17:13:12.933Z,2.13
2022-09-03T17:16:24.991Z,2.15
2022-09-03T17:19:51.199Z,2.17
2022-09-03T17:22:36.675Z,2.30
2022-09-03T17:25:38.279Z,2.17
2022-09-03T17:28:25.475Z,2.80
2022-09-03T17:34:17.405Z,2.50
2022-09-03T17:37:20.496Z,2.15
2022-09-03T17:46:10.891Z,4.90
2022-09-03T17:48:54.536Z,4.35
2022-09-03T17:51:52.849Z,3.30
2022-09-03T17:54:35.295Z,2.42
2022-09-03T17:57:22.556Z,2.95
2022-09-03T18:00:24.478Z,3.00
2022-09-03T18:03:02.500Z,2.80
2022-09-03T18:05:34.503Z,2.78
2022-09-03T18:08:11.024Z,2.13
2022-09-03T18:10:59.966Z,3.00
2022-09-03T18:13:52.212Z,2.65
2022-09-03T18:16:31.144Z,2.47
2022-09-03T18:19:11.192Z,2.33
2022-09-03T18:22:16.203Z,2.47
2022-09-03T18:25:11.828Z,2.75
2022-09-03T18:28:26.919Z,2.63
2022-09-03T18:31:29.010Z,2.50
2022-09-03T18:34:21.792Z,2.42
2022-09-03T18:37:11.393Z,2.50
2022-09-03T18:40:00.545Z,2.92
2022-09-03T18:42:55.864Z,2.95
2022-09-03T18:49:32.258Z,4.07
2022-09-03T18:52:30.366Z,3.17
2022-09-03T18:55:37.123Z,3.47
2022-09-03T18:58:49.382Z,3.33
2022-09-03T19:01:58.177Z,4.35
2022-09-03T19:04:59.819Z,3.42
2022-09-03T19:11:16.255Z,3.58
2022-09-03T19:14:05.408Z,3.28
2022-09-03T19:19:49.375Z,3.47
2022-09-03T19:23:00.287Z,3.22
2022-09-03T19:25:47.597Z,3.90
2022-09-03T19:28:41.538Z,3.65
2022-09-03T19:31:43.965Z,3.38
2022-09-03T19:34:50.900Z,3.00
2022-09-03T19:38:22.564Z,3.42
2022-09-03T19:41:28.190Z,3.85
2022-09-03T19:44:37.717Z,3.67
2022-09-03T19:48:12.732Z,3.65
2022-09-03T19:51:18.562Z,4.40
2022-09-03T19:54:08.645Z,4.15
2022-09-03T19:57:04.859Z,5.00
2022-09-03T20:03:04.095Z,5.20
2022-09-03T20:05:54.138Z,5.03
2022-09-03T20:08:45.278Z,5.85
2022-09-03T20:11:31.425Z,5.32
2022-09-03T20:14:25.033Z,5.60
2022-09-03T20:17:21.473Z,5.40
2022-09-03T20:20:13.356Z,5.70
2022-09-03T20:23:12.589Z,5.63
2022-09-03T20:26:19.161Z,6.32
2022-09-03T20:29:11.218Z,5.70
2022-09-03T20:32:35.088Z,5.30
2022-09-03T20:35:28.827Z,5.68
2022-09-03T20:38:23.789Z,5.95
2022-09-03T20:47:38.803Z,5.82
2022-09-03T20:52:59.919Z,6.00
2022-09-03T20:55:49.822Z,5.22
2022-09-03T20:58:20.489Z,5.35
2022-09-03T21:00:54.224Z,5.63
2022-09-03T21:03:27.456Z,5.60
2022-09-03T21:06:18.125Z,6.28
2022-09-03T21:09:06.578Z,5.53
2022-09-03T21:12:16.069Z,5.30
2022-09-03T21:17:55.012Z,4.68
2022-09-03T21:20:35.445Z,5.38
2022-09-03T21:23:19.464Z,4.45
2022-09-03T21:26:04.845Z,5.15
2022-09-03T21:28:45.335Z,4.85
2022-09-03T21:31:17.091Z,4.53
2022-09-03T21:33:52.395Z,4.50
2022-09-03T21:36:42.971Z,4.87
2022-09-03T21:39:44.612Z,4.88
2022-09-03T21:42:38.962Z,5.93
2022-09-03T21:45:38.004Z,5.55
2022-09-03T21:48:21.616Z,5.45
2022-09-03T21:53:16.031Z,5.00
2022-09-03T21:56:07.108Z,5.00
2022-09-03T22:00:35.192Z,5.40
2022-09-03T22:03:07.421Z,5.18
2022-09-03T22:06:10.148Z,5.32
2022-09-03T22:08:50.565Z,5.78
2022-09-03T22:11:47.001Z,5.15
2022-09-03T22:14:17.539Z,5.70
2022-09-03T22:17:07.292Z,5.65
2022-09-03T22:19:42.579Z,6.00
2022-09-03T22:22:52.993Z,5.97
2022-09-03T22:25:30.651Z,7.13
2022-09-03T22:28:06.179Z,6.50
2022-09-03T22:30:52.484Z,6.28
2022-09-03T22:33:27.798Z,6.57
2022-09-03T22:36:02.584Z,6.90
2022-09-03T22:38:45.813Z,7.10
2022-09-03T22:41:37.858Z,7.03
2022-09-03T22:44:22.077Z,7.38
2022-09-03T22:47:07.796Z,8.25
2022-09-03T22:49:35.504Z,7.78
2022-09-03T22:52:22.882Z,8.27
2022-09-03T22:55:21.480Z,7.55
2022-09-03T22:57:57.687Z,8.68
2022-09-03T23:00:29.950Z,8.80
2022-09-03T23:03:09.091Z,8.50
2022-09-03T23:05:45.403Z,9.07
2022-09-03T23:08:25.616Z,9.63
2022-09-03T23:11:20.754Z,9.40
2022-09-03T23:13:55.459Z,8.90
2022-09-03T23:16:41.543Z,9.88
2022-09-03T23:22:07.999Z,9.55
2022-09-03T23:25:03.662Z,9.13
2022-09-03T23:27:50.854Z,9.60
2022-09-03T23:30:23.059Z,9.50
2022-09-03T23:32:56.283Z,9.52
2022-09-03T23:35:30.537Z,9.85
2022-09-03T23:38:16.877Z,9.88
2022-09-03T23:41:04.340Z,10.05
2022-09-03T23:43:41.203Z,10.23
2022-09-03T23:46:36.975Z,11.77
2022-09-03T23:49:28.778Z,9.93
2022-09-03T23:52:16.813Z,10.57
2022-09-03T23:54:51.833Z,11.07
2022-09-03T23:57:37.065Z,11.52
